createdAt,value
2019-01-02T00:03:59.912Z,101322.28
2019-01-02T00:08:07.397Z,101326.38
2019-01-02T00:12:15.515Z,101319.00
2019-01-02T00:16:22.523Z,101327.06
2019-01-02T00:20:29.461Z,101342.80
2019-01-02T00:24:36.450Z,101326.35
2019-01-02T00:28:52.800Z,101338.80
2019-01-02T00:33:01.392Z,101337.70
2019-01-02T00:37:08.450Z,101335.36
2019-01-02T00:41:16.346Z,101336.24
2019-01-02T00:45:24.218Z,101329.92
2019-01-02T00:49:31.100Z,101331.52
2019-01-02T00:53:41.173Z,101350.19
2019-01-02T00:57:48.150Z,101344.83
2019-01-02T01:01:55.081Z,101332.60
2019-01-02T01:06:02.547Z,101339.61
2019-01-02T01:10:14.905Z,101348.61
2019-01-02T01:14:22.319Z,101350.86
2019-01-02T01:18:29.322Z,101365.84
2019-01-02T01:22:37.075Z,101389.63
2019-01-02T01:26:44.054Z,101385.33
2019-01-02T01:30:53.654Z,101412.14
2019-01-02T01:35:00.643Z,101411.69
2019-01-02T01:39:10.013Z,101408.86
2019-01-02T01:43:20.621Z,101412.30
2019-01-02T01:47:29.020Z,101411.05
2019-01-02T01:51:37.097Z,101402.53
2019-01-02T01:55:44.197Z,101411.28
2019-01-02T01:59:58.015Z,101407.19
2019-01-02T02:04:05.469Z,101405.44
2019-01-02T02:08:12.460Z,101395.30
2019-01-02T02:12:19.431Z,101387.22
2019-01-02T02:16:26.872Z,101399.05
2019-01-02T02:24:40.639Z,101394.27
2019-01-02T02:28:48.043Z,101392.73
2019-01-02T02:32:55.342Z,101398.09
2019-01-02T02:37:02.330Z,101393.82
2019-01-02T02:41:09.315Z,101400.48
2019-01-02T02:45:17.913Z,101421.87
2019-01-02T02:49:25.324Z,101411.47
2019-01-02T02:53:32.471Z,101400.14
2019-01-02T02:57:39.964Z,101392.00
2019-01-02T03:01:48.126Z,101393.84
2019-01-02T03:05:55.446Z,101401.34
2019-01-02T03:10:04.064Z,101403.61
2019-01-02T03:14:11.460Z,101408.33
2019-01-02T03:18:18.805Z,101416.63
2019-01-02T03:22:26.018Z,101423.52
2019-01-02T03:26:33.357Z,101426.42
2019-01-02T03:30:40.268Z,101412.98
2019-01-02T03:34:47.578Z,101410.44
2019-01-02T03:38:54.489Z,101407.53
2019-01-02T03:43:01.415Z,101415.61
2019-01-02T03:47:08.332Z,101416.98
2019-01-02T03:51:15.352Z,101413.22
2019-01-02T03:55:23.368Z,101426.72
2019-01-02T03:59:33.459Z,101415.52
2019-01-02T04:03:40.317Z,101393.88
2019-01-02T04:07:59.121Z,101407.08
2019-01-02T04:12:07.442Z,101407.02
2019-01-02T04:16:14.613Z,101420.31
2019-01-02T04:20:21.626Z,101404.87
2019-01-02T04:24:28.453Z,101415.42
2019-01-02T04:28:35.790Z,101415.16
2019-01-02T04:32:42.801Z,101420.03
2019-01-02T04:36:50.111Z,101421.28
2019-01-02T04:40:57.094Z,101419.91
2019-01-02T04:45:04.889Z,101416.28
2019-01-02T04:49:12.000Z,101410.55
2019-01-02T04:53:18.932Z,101390.48
2019-01-02T04:57:25.897Z,101390.57
2019-01-02T05:01:32.912Z,101396.73
2019-01-02T05:05:39.936Z,101406.33
2019-01-02T05:09:46.850Z,101416.84
2019-01-02T05:13:53.717Z,101405.88
2019-01-02T05:18:00.609Z,101414.36
2019-01-02T05:22:09.455Z,101413.11
2019-01-02T05:26:16.319Z,101422.88
2019-01-02T05:30:23.230Z,101430.10
2019-01-02T05:34:30.195Z,101429.15
2019-01-02T05:38:37.184Z,101431.20
2019-01-02T05:42:44.151Z,101445.02
2019-01-02T05:46:51.195Z,101441.95
2019-01-02T05:50:58.147Z,101464.70
2019-01-02T05:55:07.828Z,101452.42
2019-01-02T05:59:14.806Z,101446.83
2019-01-02T06:03:21.752Z,101453.31
2019-01-02T06:07:28.673Z,101450.61
2019-01-02T06:11:35.748Z,101453.60
2019-01-02T06:15:42.826Z,101459.34
2019-01-02T06:19:49.855Z,101458.90
2019-01-02T06:23:56.833Z,101462.23
2019-01-02T06:28:03.923Z,101459.38
2019-01-02T06:32:14.353Z,101477.66
2019-01-02T06:36:21.551Z,101484.84
2019-01-02T06:40:28.462Z,101485.95
2019-01-02T06:44:35.357Z,101486.10
2019-01-02T06:48:42.266Z,101488.16
2019-01-02T06:52:49.305Z,101492.84
2019-01-02T06:56:56.367Z,101507.86
2019-01-02T07:01:03.382Z,101505.09
2019-01-02T07:05:11.501Z,101501.50
2019-01-02T07:09:18.465Z,101512.08
2019-01-02T07:13:26.516Z,101520.59
2019-01-02T07:17:33.655Z,101515.41
2019-01-02T07:21:40.546Z,101521.83
2019-01-02T07:25:47.398Z,101524.45
2019-01-02T07:29:54.388Z,101542.27
2019-01-02T07:34:24.751Z,101572.56
2019-01-02T07:39:15.899Z,101587.29
2019-01-02T07:44:04.001Z,101596.55
2019-01-02T07:49:31.891Z,101580.00
2019-01-02T07:55:02.516Z,101591.49
2019-01-02T08:00:10.880Z,101592.81
2019-01-02T08:05:13.271Z,101592.80
2019-01-02T08:10:08.316Z,101603.35
2019-01-02T08:15:11.824Z,101607.22
2019-01-02T08:20:33.685Z,101606.78
2019-01-02T08:25:48.790Z,101604.80
2019-01-02T08:30:51.247Z,101610.69
2019-01-02T08:35:48.588Z,101600.31
2019-01-02T08:40:43.872Z,101598.85
2019-01-02T08:45:37.834Z,101591.66
2019-01-02T08:50:38.396Z,101591.97
2019-01-02T08:55:35.115Z,101588.62
2019-01-02T09:00:46.557Z,101605.22
2019-01-02T09:05:42.992Z,101608.47
2019-01-02T09:11:01.788Z,101601.39
2019-01-02T09:15:38.246Z,101612.00
2019-01-02T09:20:39.117Z,101617.13
2019-01-02T09:25:43.559Z,101598.98
2019-01-02T09:30:43.905Z,101588.33
2019-01-02T09:35:55.473Z,101593.65
2019-01-02T09:40:52.411Z,101584.89
2019-01-02T09:45:59.505Z,101596.17
2019-01-02T09:50:53.098Z,101613.27
2019-01-02T09:56:01.288Z,101621.59
2019-01-02T10:01:01.772Z,101627.47
2019-01-02T10:06:03.550Z,101645.66
2019-01-02T10:10:53.860Z,101637.73
2019-01-02T10:16:15.434Z,101647.13
2019-01-02T10:21:13.110Z,101653.58
2019-01-02T10:26:18.729Z,101657.83
2019-01-02T10:31:31.028Z,101675.09
2019-01-02T10:36:20.019Z,101675.95
2019-01-02T10:41:11.712Z,101674.50
2019-01-02T10:46:30.812Z,101667.89
2019-01-02T10:51:14.850Z,101675.77
2019-01-02T10:56:45.539Z,101672.21
2019-01-02T11:01:50.255Z,101661.21
2019-01-02T11:06:47.579Z,101659.15
2019-01-02T11:11:37.830Z,101655.24
2019-01-02T11:16:33.072Z,101659.34
2019-01-02T11:21:41.245Z,101661.27
2019-01-02T11:27:05.115Z,101654.10
2019-01-02T11:32:24.138Z,101655.11
2019-01-02T11:37:51.344Z,101659.84
2019-01-02T11:42:36.811Z,101652.08
2019-01-02T11:46:45.812Z,101648.38
2019-01-02T11:50:54.419Z,101644.39
2019-01-02T11:55:01.796Z,101651.45
2019-01-02T11:59:09.118Z,101639.61
2019-01-02T12:03:16.403Z,101637.26
2019-01-02T12:07:23.610Z,101644.73
2019-01-02T12:11:30.871Z,101637.13
2019-01-02T12:15:38.438Z,101642.25
2019-01-02T12:19:45.458Z,101634.09
2019-01-02T12:23:52.512Z,101649.51
2019-01-02T12:28:01.890Z,101657.27
2019-01-02T12:32:08.916Z,101663.02
2019-01-02T12:36:15.945Z,101656.80
2019-01-02T12:40:22.892Z,101662.98
2019-01-02T12:44:31.043Z,101660.47
2019-01-02T12:48:38.106Z,101649.51
2019-01-02T12:52:45.202Z,101658.66
2019-01-02T12:56:52.238Z,101665.91
2019-01-02T13:01:13.004Z,101671.47
2019-01-02T13:06:34.716Z,101675.73
2019-01-02T13:11:04.720Z,101681.36
2019-01-02T13:15:55.724Z,101692.41
2019-01-02T13:20:43.851Z,101713.27
2019-01-02T13:25:16.757Z,101718.75
2019-01-02T13:30:07.218Z,101714.92
2019-01-02T13:35:13.669Z,101717.83
2019-01-02T13:39:33.097Z,101712.99
2019-01-02T13:44:44.999Z,101722.10
2019-01-02T13:49:35.783Z,101721.44
2019-01-02T13:53:53.534Z,101731.47
2019-01-02T13:58:03.542Z,101727.75
2019-01-02T14:02:12.896Z,101736.12
2019-01-02T14:06:19.977Z,101730.83
2019-01-02T14:10:29.004Z,101737.83
2019-01-02T14:14:38.754Z,101731.76
2019-01-02T14:18:57.120Z,101740.42
2019-01-02T14:23:09.869Z,101752.14
2019-01-02T14:27:22.941Z,101756.05
2019-01-02T14:31:30.324Z,101758.29
2019-01-02T14:35:41.605Z,101765.61
2019-01-02T14:39:54.746Z,101781.90
2019-01-02T14:44:03.956Z,101785.91
2019-01-02T14:48:11.112Z,101789.08
2019-01-02T14:52:19.296Z,101792.87
2019-01-02T14:56:28.850Z,101794.88
2019-01-02T15:00:35.930Z,101802.43
2019-01-02T15:04:42.918Z,101806.77
2019-01-02T15:08:50.080Z,101804.34
2019-01-02T15:12:57.145Z,101806.00
2019-01-02T15:17:04.138Z,101814.53
2019-01-02T15:21:11.598Z,101816.17
2019-01-02T15:25:20.166Z,101819.00
2019-01-02T15:29:27.480Z,101829.64
2019-01-02T15:33:34.382Z,101838.63
2019-01-02T15:37:41.569Z,101838.36
2019-01-02T15:41:48.486Z,101842.84
2019-01-02T15:45:56.514Z,101848.30
2019-01-02T15:50:08.551Z,101848.23
2019-01-02T15:54:15.669Z,101852.36
2019-01-02T15:58:25.257Z,101859.02
2019-01-02T16:02:35.187Z,101864.73
2019-01-02T16:06:42.124Z,101879.26
2019-01-02T16:10:49.702Z,101885.35
2019-01-02T16:14:56.959Z,101897.81
2019-01-02T16:19:06.175Z,101906.24
2019-01-02T16:23:13.387Z,101916.31
2019-01-02T16:27:20.527Z,101924.43
2019-01-02T16:31:27.562Z,101934.88
2019-01-02T16:35:34.647Z,101934.94
2019-01-02T16:39:42.159Z,101933.91
2019-01-02T16:43:52.709Z,101937.53
2019-01-02T16:47:59.978Z,101943.07
2019-01-02T16:52:07.033Z,101936.94
2019-01-02T16:56:16.414Z,101942.98
2019-01-02T17:00:26.480Z,101959.70
2019-01-02T17:04:36.806Z,101961.97
2019-01-02T17:08:43.814Z,101960.62
2019-01-02T17:12:52.868Z,101962.49
2019-01-02T17:16:59.705Z,101968.19
2019-01-02T17:21:07.561Z,101974.28
2019-01-02T17:25:14.903Z,101968.28
2019-01-02T17:29:24.215Z,101975.24
2019-01-02T17:33:34.533Z,101979.28
2019-01-02T17:37:41.795Z,101978.94
2019-01-02T17:41:48.859Z,101982.14
2019-01-02T17:45:55.940Z,101981.71
2019-01-02T17:50:05.997Z,101984.40
2019-01-02T17:54:14.786Z,101983.92
2019-01-02T17:58:22.965Z,101989.19
2019-01-02T18:02:30.131Z,101995.36
2019-01-02T18:06:38.656Z,102008.49
2019-01-02T18:10:45.882Z,102015.92
2019-01-02T18:14:53.138Z,102017.70
2019-01-02T18:19:00.531Z,102020.20
2019-01-02T18:23:08.363Z,102028.50
2019-01-02T18:27:15.353Z,102030.03
2019-01-02T18:31:22.380Z,102030.15
2019-01-02T18:35:29.559Z,102032.33
2019-01-02T18:39:37.343Z,102046.83
2019-01-02T18:43:45.741Z,102051.71
2019-01-02T18:47:52.809Z,102056.11
2019-01-02T18:52:01.963Z,102056.48
2019-01-02T18:56:12.370Z,102059.83
2019-01-02T19:00:25.302Z,102064.58
2019-01-02T19:04:32.387Z,102076.53
2019-01-02T19:08:39.927Z,102079.69
2019-01-02T19:12:47.106Z,102075.91
2019-01-02T19:16:54.049Z,102080.39
2019-01-02T19:21:01.510Z,102087.75
2019-01-02T19:25:17.690Z,102090.76
2019-01-02T19:29:25.293Z,102100.29
2019-01-02T19:33:32.538Z,102100.35
2019-01-02T19:37:39.619Z,102096.60
2019-01-02T19:41:46.639Z,102094.56
2019-01-02T19:45:53.838Z,102095.00
2019-01-02T19:50:01.360Z,102097.73
2019-01-02T19:54:16.420Z,102105.58
2019-01-02T19:58:29.938Z,102106.05
2019-01-02T20:02:37.178Z,102108.25
2019-01-02T20:06:50.766Z,102117.47
2019-01-02T20:11:02.542Z,102113.09
2019-01-02T20:15:13.578Z,102114.15
2019-01-02T20:19:21.884Z,102110.17
2019-01-02T20:23:29.442Z,102115.27
2019-01-02T20:27:37.954Z,102102.88
2019-01-02T20:31:46.333Z,102102.41
2019-01-02T20:35:55.719Z,102108.00
2019-01-02T20:40:03.477Z,102106.60
2019-01-02T20:44:10.402Z,102106.32
2019-01-02T20:48:17.534Z,102110.72
2019-01-02T20:52:25.254Z,102104.64
2019-01-02T20:56:32.825Z,102094.36
2019-01-02T21:00:45.590Z,102101.39
2019-01-02T21:04:52.738Z,102097.45
2019-01-02T21:09:02.638Z,102099.74
2019-01-02T21:13:11.200Z,102098.93
2019-01-02T21:17:18.339Z,102095.92
2019-01-02T21:21:29.297Z,102097.68
2019-01-02T21:25:37.869Z,102098.23
2019-01-02T21:29:45.001Z,102099.09
2019-01-02T21:33:56.992Z,102104.34
2019-01-02T21:38:04.028Z,102097.47
2019-01-02T21:42:11.095Z,102106.98
2019-01-02T21:46:18.088Z,102107.89
2019-01-02T21:50:24.969Z,102106.98
2019-01-02T21:54:31.944Z,102094.45
2019-01-02T21:58:40.678Z,102099.25
2019-01-02T22:02:47.985Z,102099.34
2019-01-02T22:06:56.394Z,102100.97
2019-01-02T22:11:03.327Z,102101.86
2019-01-02T22:15:14.225Z,102100.09
2019-01-02T22:19:21.248Z,102101.78
2019-01-02T22:23:31.293Z,102106.58
2019-01-02T22:27:38.543Z,102114.52
2019-01-02T22:31:45.574Z,102110.69
2019-01-02T22:35:52.748Z,102119.36
2019-01-02T22:40:02.090Z,102123.28
2019-01-02T22:44:10.143Z,102131.06
2019-01-02T22:48:17.041Z,102128.98
2019-01-02T22:52:25.655Z,102131.13
2019-01-02T22:56:32.564Z,102139.91
2019-01-02T23:01:03.659Z,102145.87
2019-01-02T23:05:33.130Z,102146.00
2019-01-02T23:10:06.382Z,102147.72
2019-01-02T23:14:32.283Z,102159.05
2019-01-02T23:18:58.213Z,102153.44
2019-01-02T23:23:23.150Z,102168.23
2019-01-02T23:27:45.590Z,102170.39
2019-01-02T23:32:10.099Z,102173.06
2019-01-02T23:36:32.366Z,102173.52
2019-01-02T23:40:58.297Z,102188.61
2019-01-02T23:45:23.162Z,102190.84
2019-01-02T23:49:44.155Z,102192.14
2019-01-02T23:54:10.049Z,102189.48
2019-01-02T23:58:34.856Z,102200.28
